Time,TemperatureF,DewpointF,PressureIn,WindDirection,WindDirectionDegrees,WindSpeedMPH,WindSpeedGustMPH,Humidity,HourlyPrecipIn,Conditions,Clouds,dailyrainin,SolarRadiationWatts/m^2,SoftwareType,DateUTC
2013-03-09 00:11:00,70.0,64.0,30.28,SSW,202,8.0,12.0,81,0.00,,,0.00,0.000000,,2013-03-09 10:11:00,
2013-03-09 00:21:00,70.0,64.0,30.28,SSW,202,8.0,12.0,81,0.00,,,0.00,0.000000,,2013-03-09 10:21:00,
2013-03-09 00:31:00,70.0,64.0,30.28,SSW,202,8.0,12.0,81,0.00,,,0.00,0.000000,,2013-03-09 10:31:00,
2013-03-09 00:41:00,70.0,64.0,30.28,SSW,202,8.0,12.0,81,0.00,,,0.00,0.000000,,2013-03-09 10:41:00,
2013-03-09 00:51:00,70.0,64.0,30.28,SSW,202,8.0,12.0,81,0.00,,,0.00,0.000000,,2013-03-09 10:51:00,
2013-03-09 01:11:00,70.0,64.0,30.27,South,186,7.0,14.0,81,0.00,,,0.00,0.000000,,2013-03-09 11:11:00,
2013-03-09 01:21:00,70.0,64.0,30.27,South,186,7.0,14.0,81,0.00,,,0.00,0.000000,,2013-03-09 11:21:00,
2013-03-09 01:32:00,70.0,64.0,30.27,South,186,7.0,14.0,81,0.00,,,0.00,0.000000,,2013-03-09 11:32:00,
2013-03-09 01:41:00,70.0,64.0,30.27,South,186,7.0,14.0,81,0.00,,,0.00,0.000000,,2013-03-09 11:41:00,
2013-03-09 01:52:00,70.0,64.0,30.27,South,186,7.0,14.0,81,0.00,,,0.00,0.000000,,2013-03-09 11:52:00,
2013-03-09 02:11:00,71.0,65.0,30.25,South,191,7.0,14.0,82,0.00,,,0.00,0.000000,,2013-03-09 12:11:00,
2013-03-09 02:21:00,71.0,65.0,30.25,South,191,7.0,14.0,82,0.00,,,0.00,0.000000,,2013-03-09 12:21:00,
2013-03-09 02:32:00,71.0,65.0,30.25,South,191,7.0,14.0,82,0.00,,,0.00,0.000000,,2013-03-09 12:32:00,
2013-03-09 02:42:00,71.0,65.0,30.25,South,191,7.0,14.0,82,0.00,,,0.00,0.000000,,2013-03-09 12:42:00,
2013-03-09 02:52:00,71.0,65.0,30.25,South,191,7.0,14.0,82,0.00,,,0.00,0.000000,,2013-03-09 12:52:00,
2013-03-09 03:21:00,69.0,63.0,30.23,South,183,7.0,17.0,81,0.00,,,0.00,0.000000,,2013-03-09 13:21:00,
2013-03-09 03:31:00,69.0,63.0,30.23,South,183,7.0,17.0,81,0.00,,,0.00,0.000000,,2013-03-09 13:31:00,
2013-03-09 03:41:00,69.0,63.0,30.23,South,183,7.0,17.0,81,0.00,,,0.00,0.000000,,2013-03-09 13:41:00,
2013-03-09 03:51:00,69.0,63.0,30.23,South,183,7.0,17.0,81,0.00,,,0.00,0.000000,,2013-03-09 13:51:00,
2013-03-09 04:11:00,69.0,63.0,30.21,South,185,8.0,15.0,82,0.00,,,0.00,0.000000,,2013-03-09 14:11:00,
2013-03-09 04:21:00,69.0,63.0,30.21,South,185,8.0,15.0,82,0.00,,,0.00,0.000000,,2013-03-09 14:21:00,
2013-03-09 04:31:00,69.0,63.0,30.21,South,185,8.0,15.0,82,0.00,,,0.00,0.000000,,2013-03-09 14:31:00,
2013-03-09 04:41:00,69.0,63.0,30.21,South,185,8.0,15.0,82,0.00,,,0.00,0.000000,,2013-03-09 14:41:00,
2013-03-09 04:52:00,69.0,63.0,30.21,South,185,8.0,15.0,82,0.00,,,0.00,0.000000,,2013-03-09 14:52:00,
2013-03-09 05:22:00,69.0,63.0,30.20,South,174,11.0,17.0,82,0.00,,,0.00,0.000000,,2013-03-09 15:22:00,
2013-03-09 05:31:00,69.0,63.0,30.20,South,174,11.0,17.0,82,0.00,,,0.00,0.000000,,2013-03-09 15:31:00,
2013-03-09 05:42:00,69.0,63.0,30.20,South,174,11.0,17.0,82,0.00,,,0.00,0.000000,,2013-03-09 15:42:00,
2013-03-09 05:52:00,69.0,63.0,30.20,South,174,11.0,17.0,82,0.00,,,0.00,0.000000,,2013-03-09 15:52:00,
2013-03-09 06:11:00,71.0,66.0,30.21,South,184,10.0,18.0,83,0.00,,,0.00,0.000000,,2013-03-09 16:11:00,
2013-03-09 06:21:00,71.0,66.0,30.21,South,184,10.0,18.0,83,0.00,,,0.00,0.000000,,2013-03-09 16:21:00,
2013-03-09 06:31:00,71.0,66.0,30.21,South,184,10.0,18.0,83,0.00,,,0.00,0.000000,,2013-03-09 16:31:00,
2013-03-09 06:41:00,71.0,66.0,30.21,South,184,10.0,18.0,83,0.00,,,0.00,0.000000,,2013-03-09 16:41:00,
2013-03-09 06:51:00,71.0,66.0,30.21,South,184,10.0,18.0,83,0.00,,,0.00,0.000000,,2013-03-09 16:51:00,
2013-03-09 07:22:00,69.0,63.0,30.22,South,182,11.0,22.0,82,0.00,,,0.00,0.000000,,2013-03-09 17:22:00,
2013-03-09 07:32:00,69.0,63.0,30.22,South,182,11.0,22.0,82,0.00,,,0.00,0.000000,,2013-03-09 17:32:00,
2013-03-09 07:42:00,69.0,63.0,30.22,South,182,11.0,22.0,82,0.00,,,0.00,0.000000,,2013-03-09 17:42:00,
2013-03-09 07:52:00,69.0,63.0,30.22,South,182,11.0,22.0,82,0.00,,,0.00,0.000000,,2013-03-09 17:52:00,
2013-03-09 08:21:00,71.0,65.0,30.25,South,181,12.0,23.0,80,0.00,,,0.00,1.000000,,2013-03-09 18:21:00,
2013-03-09 08:31:00,71.0,65.0,30.25,South,181,12.0,23.0,80,0.00,,,0.00,1.000000,,2013-03-09 18:31:00,
2013-03-09 08:42:00,71.0,65.0,30.25,South,181,12.0,23.0,80,0.00,,,0.00,1.000000,,2013-03-09 18:42:00,
2013-03-09 08:51:00,71.0,65.0,30.25,South,181,12.0,23.0,80,0.00,,,0.00,1.000000,,2013-03-09 18:51:00,
2013-03-09 09:22:00,73.0,65.0,30.27,SSW,195,9.0,23.0,77,0.00,,,0.00,128.000000,,2013-03-09 19:22:00,
2013-03-09 09:32:00,73.0,65.0,30.27,SSW,195,9.0,23.0,77,0.00,,,0.00,128.000000,,2013-03-09 19:32:00,
2013-03-09 09:41:00,73.0,65.0,30.27,SSW,195,9.0,23.0,77,0.00,,,0.00,128.000000,,2013-03-09 19:41:00,
2013-03-09 09:51:00,73.0,65.0,30.27,SSW,195,9.0,23.0,77,0.00,,,0.00,128.000000,,2013-03-09 19:51:00,
2013-03-09 10:11:00,75.0,68.0,30.28,South,190,10.0,21.0,78,0.00,,,0.00,348.000000,,2013-03-09 20:11:00,
2013-03-09 10:21:00,75.0,68.0,30.28,South,190,10.0,21.0,78,0.00,,,0.00,348.000000,,2013-03-09 20:21:00,
2013-03-09 10:31:00,75.0,68.0,30.28,South,190,10.0,21.0,78,0.00,,,0.00,348.000000,,2013-03-09 20:31:00,
2013-03-09 10:41:00,75.0,68.0,30.28,South,190,10.0,21.0,78,0.00,,,0.00,348.000000,,2013-03-09 20:41:00,
2013-03-09 10:52:00,75.0,68.0,30.28,South,190,10.0,21.0,78,0.00,,,0.00,348.000000,,2013-03-09 20:52:00,
2013-03-09 11:12:00,75.0,67.0,30.28,South,184,14.0,23.0,75,0.00,,,0.00,524.000000,,2013-03-09 21:12:00,
2013-03-09 11:21:00,75.0,67.0,30.28,South,184,14.0,23.0,75,0.00,,,0.00,524.000000,,2013-03-09 21:21:00,
2013-03-09 11:31:00,75.0,67.0,30.28,South,184,14.0,23.0,75,0.00,,,0.00,524.000000,,2013-03-09 21:31:00,
2013-03-09 11:41:00,75.0,67.0,30.28,South,184,14.0,23.0,75,0.00,,,0.00,524.000000,,2013-03-09 21:41:00,
2013-03-09 11:51:00,75.0,67.0,30.28,South,184,14.0,23.0,75,0.00,,,0.00,524.000000,,2013-03-09 21:51:00,
2013-03-09 12:11:00,74.0,65.0,30.27,SSW,201,11.0,26.0,73,0.00,,,0.00,765.000000,,2013-03-09 22:11:00,
2013-03-09 12:21:00,74.0,65.0,30.27,SSW,201,11.0,26.0,73,0.00,,,0.00,765.000000,,2013-03-09 22:21:00,
2013-03-09 12:32:00,74.0,65.0,30.27,SSW,201,11.0,26.0,73,0.00,,,0.00,765.000000,,2013-03-09 22:32:00,
2013-03-09 12:41:00,74.0,65.0,30.27,SSW,201,11.0,26.0,73,0.00,,,0.00,765.000000,,2013-03-09 22:41:00,
2013-03-09 12:51:00,74.0,65.0,30.27,SSW,201,11.0,26.0,73,0.00,,,0.00,765.000000,,2013-03-09 22:51:00,
2013-03-09 13:11:00,74.0,66.0,30.22,SSW,207,12.0,29.0,75,0.00,,,0.00,680.000000,,2013-03-09 23:11:00,
2013-03-09 13:21:00,74.0,66.0,30.22,SSW,207,12.0,29.0,75,0.00,,,0.00,680.000000,,2013-03-09 23:21:00,
2013-03-09 13:32:00,74.0,66.0,30.22,SSW,207,12.0,29.0,75,0.00,,,0.00,680.000000,,2013-03-09 23:32:00,
2013-03-09 13:41:00,74.0,66.0,30.22,SSW,207,12.0,29.0,75,0.00,,,0.00,680.000000,,2013-03-09 23:41:00,
2013-03-09 13:52:00,74.0,66.0,30.22,SSW,207,12.0,29.0,75,0.00,,,0.00,680.000000,,2013-03-09 23:52:00,
2013-03-09 14:11:00,77.0,67.0,30.21,SSW,203,15.0,24.0,71,0.00,,,0.00,646.000000,,2013-03-10 00:11:00,
2013-03-09 14:22:00,77.0,67.0,30.21,SSW,203,15.0,24.0,71,0.00,,,0.00,646.000000,,2013-03-10 00:22:00,
2013-03-09 14:32:00,77.0,67.0,30.21,SSW,203,15.0,24.0,71,0.00,,,0.00,646.000000,,2013-03-10 00:32:00,
2013-03-09 14:42:00,77.0,67.0,30.21,SSW,203,15.0,24.0,71,0.00,,,0.00,646.000000,,2013-03-10 00:42:00,
2013-03-09 14:51:00,77.0,67.0,30.21,SSW,203,15.0,24.0,71,0.00,,,0.00,646.000000,,2013-03-10 00:51:00,
2013-03-09 15:11:00,75.0,67.0,30.19,SSW,203,13.0,23.0,75,0.00,,,0.00,1021.000000,,2013-03-10 01:11:00,
2013-03-09 15:21:00,75.0,67.0,30.19,SSW,203,13.0,23.0,75,0.00,,,0.00,1021.000000,,2013-03-10 01:21:00,
2013-03-09 15:31:00,75.0,67.0,30.19,SSW,203,13.0,23.0,75,0.00,,,0.00,1021.000000,,2013-03-10 01:31:00,
2013-03-09 15:41:00,75.0,67.0,30.19,SSW,203,13.0,23.0,75,0.00,,,0.00,1021.000000,,2013-03-10 01:41:00,
2013-03-09 15:51:00,75.0,67.0,30.19,SSW,203,13.0,23.0,75,0.00,,,0.00,1021.000000,,2013-03-10 01:51:00,
2013-03-09 16:22:00,73.0,65.0,30.19,SSW,202,13.0,23.0,76,0.00,,,-99.99,590.000000,,2013-03-10 02:22:00,
2013-03-09 16:31:00,73.0,65.0,30.19,SSW,202,13.0,23.0,76,0.00,,,-99.99,590.000000,,2013-03-10 02:31:00,
2013-03-09 16:41:00,73.0,65.0,30.19,SSW,202,13.0,23.0,76,0.00,,,-99.99,590.000000,,2013-03-10 02:41:00,
2013-03-09 16:52:00,73.0,65.0,30.19,SSW,202,13.0,23.0,76,0.00,,,-99.99,590.000000,,2013-03-10 02:52:00,
2013-03-09 17:11:00,72.0,64.0,30.19,SW,221,17.0,28.0,77,0.00,,,0.00,371.000000,,2013-03-10 03:11:00,
2013-03-09 17:22:00,72.0,64.0,30.19,SW,221,17.0,28.0,77,0.00,,,0.00,371.000000,,2013-03-10 03:22:00,
2013-03-09 17:31:00,72.0,64.0,30.19,SW,221,17.0,28.0,77,0.00,,,0.00,371.000000,,2013-03-10 03:31:00,
2013-03-09 17:42:00,72.0,64.0,30.19,SW,221,17.0,28.0,77,0.00,,,0.00,371.000000,,2013-03-10 03:42:00,
2013-03-09 17:52:00,72.0,64.0,30.19,SW,221,17.0,28.0,77,0.00,,,0.00,371.000000,,2013-03-10 03:52:00,
2013-03-09 18:21:00,73.0,65.0,30.20,SW,223,14.0,25.0,75,0.00,,,0.00,207.000000,,2013-03-10 04:21:00,
2013-03-09 18:31:00,73.0,65.0,30.20,SW,223,14.0,25.0,75,0.00,,,0.00,207.000000,,2013-03-10 04:31:00,
2013-03-09 18:41:00,73.0,65.0,30.20,SW,223,14.0,25.0,75,0.00,,,0.00,207.000000,,2013-03-10 04:41:00,
2013-03-09 18:51:00,73.0,65.0,30.20,SW,223,14.0,25.0,75,0.00,,,0.00,207.000000,,2013-03-10 04:51:00,
2013-03-09 19:22:00,71.0,64.0,30.22,SW,220,13.0,24.0,79,0.00,,,0.00,93.000000,,2013-03-10 05:22:00,
2013-03-09 19:31:00,71.0,64.0,30.22,SW,220,13.0,24.0,79,0.00,,,0.00,93.000000,,2013-03-10 05:31:00,
2013-03-09 19:42:00,71.0,64.0,30.22,SW,220,13.0,24.0,79,0.00,,,0.00,93.000000,,2013-03-10 05:42:00,
2013-03-09 19:52:00,71.0,64.0,30.22,SW,220,13.0,24.0,79,0.00,,,0.00,93.000000,,2013-03-10 05:52:00,
2013-03-09 20:11:00,69.0,66.0,30.24,West,265,17.0,27.0,89,0.00,,,-99.99,14.000000,,2013-03-10 06:11:00,
2013-03-09 20:21:00,69.0,66.0,30.24,West,265,17.0,27.0,89,0.00,,,-99.99,14.000000,,2013-03-10 06:21:00,
2013-03-09 20:32:00,69.0,66.0,30.24,West,265,17.0,27.0,89,0.00,,,-99.99,14.000000,,2013-03-10 06:32:00,
2013-03-09 20:41:00,69.0,66.0,30.24,West,265,17.0,27.0,89,0.00,,,-99.99,14.000000,,2013-03-10 06:41:00,
2013-03-09 20:51:00,69.0,66.0,30.24,West,265,17.0,27.0,89,0.00,,,-99.99,14.000000,,2013-03-10 06:51:00,
2013-03-09 21:11:00,65.0,63.0,30.25,WNW,290,15.0,26.0,92,0.00,,,0.00,0.000000,,2013-03-10 07:11:00,
2013-03-09 21:21:00,65.0,63.0,30.25,WNW,290,15.0,26.0,92,0.00,,,0.00,0.000000,,2013-03-10 07:21:00,
2013-03-09 21:31:00,65.0,63.0,30.25,WNW,290,15.0,26.0,92,0.00,,,0.00,0.000000,,2013-03-10 07:31:00,
2013-03-09 21:41:00,65.0,63.0,30.25,WNW,290,15.0,26.0,92,0.00,,,0.00,0.000000,,2013-03-10 07:41:00,
2013-03-09 21:52:00,65.0,63.0,30.25,WNW,290,15.0,26.0,92,0.00,,,0.00,0.000000,,2013-03-10 07:52:00,
2013-03-09 22:11:00,66.0,62.0,30.25,West,274,18.0,25.0,86,0.00,,,0.00,0.000000,,2013-03-10 08:11:00,
2013-03-09 22:21:00,66.0,62.0,30.25,West,274,18.0,25.0,86,0.00,,,0.00,0.000000,,2013-03-10 08:21:00,
2013-03-09 22:31:00,66.0,62.0,30.25,West,274,18.0,25.0,86,0.00,,,0.00,0.000000,,2013-03-10 08:31:00,
2013-03-09 22:42:00,66.0,62.0,30.25,West,274,18.0,25.0,86,0.00,,,0.00,0.000000,,2013-03-10 08:42:00,
2013-03-09 22:51:00,66.0,62.0,30.25,West,274,18.0,25.0,86,0.00,,,0.00,0.000000,,2013-03-10 08:51:00,
2013-03-09 23:21:00,68.0,63.0,30.26,West,262,11.0,27.0,85,0.00,,,0.00,0.000000,,2013-03-10 09:21:00,
2013-03-09 23:31:00,68.0,63.0,30.26,West,262,11.0,27.0,85,0.00,,,0.00,0.000000,,2013-03-10 09:31:00,
2013-03-09 23:41:00,68.0,63.0,30.26,West,262,11.0,27.0,85,0.00,,,0.00,0.000000,,2013-03-10 09:41:00,
2013-03-09 23:51:00,68.0,63.0,30.26,West,262,11.0,27.0,85,0.00,,,0.00,0.000000,,2013-03-10 09:51:00,